sensor_id;sensor_type;location;lat;lon;timestamp;temperature;humidity
52919;DHT22;38793;52.690;6.812;2023-04-24T00:00:17;10.10;99.90
52919;DHT22;38793;52.690;6.812;2023-04-24T00:02:43;10.00;99.90
52919;DHT22;38793;52.690;6.812;2023-04-24T00:05:14;10.00;99.90
52919;DHT22;38793;52.690;6.812;2023-04-24T00:07:40;10.00;99.90
52919;DHT22;38793;52.690;6.812;2023-04-24T00:10:06;9.90;99.90
52919;DHT22;38793;52.690;6.812;2023-04-24T00:12:32;9.90;99.90
52919;DHT22;38793;52.690;6.812;2023-04-24T00:14:57;9.90;99.90
52919;DHT22;38793;52.690;6.812;2023-04-24T00:17:23;9.90;99.90
52919;DHT22;38793;52.690;6.812;2023-04-24T00:19:49;9.80;99.90
52919;DHT22;38793;52.690;6.812;2023-04-24T00:22:17;9.80;99.90
52919;DHT22;38793;52.690;6.812;2023-04-24T00:24:42;9.80;99.90
52919;DHT22;38793;52.690;6.812;2023-04-24T00:27:08;9.80;99.90
52919;DHT22;38793;52.690;6.812;2023-04-24T00:29:34;9.80;99.90
52919;DHT22;38793;52.690;6.812;2023-04-24T00:32:00;9.80;99.90
52919;DHT22;38793;52.690;6.812;2023-04-24T00:34:25;9.80;99.90
52919;DHT22;38793;52.690;6.812;2023-04-24T00:36:51;9.80;99.90
52919;DHT22;38793;52.690;6.812;2023-04-24T00:39:21;9.70;99.90
52919;DHT22;38793;52.690;6.812;2023-04-24T00:41:47;9.70;99.90
52919;DHT22;38793;52.690;6.812;2023-04-24T00:44:14;9.70;99.90
52919;DHT22;38793;52.690;6.812;2023-04-24T00:46:39;9.60;99.90
52919;DHT22;38793;52.690;6.812;2023-04-24T00:49:05;9.60;99.90
52919;DHT22;38793;52.690;6.812;2023-04-24T00:51:31;9.60;99.90
52919;DHT22;38793;52.690;6.812;2023-04-24T00:53:58;9.60;99.90
52919;DHT22;38793;52.690;6.812;2023-04-24T00:56:24;9.60;99.90
52919;DHT22;38793;52.690;6.812;2023-04-24T00:58:50;9.60;99.90
52919;DHT22;38793;52.690;6.812;2023-04-24T01:01:16;9.60;99.90
52919;DHT22;38793;52.690;6.812;2023-04-24T01:03:42;9.60;99.90
52919;DHT22;38793;52.690;6.812;2023-04-24T01:06:09;9.50;99.90
52919;DHT22;38793;52.690;6.812;2023-04-24T01:08:34;9.50;99.90
52919;DHT22;38793;52.690;6.812;2023-04-24T01:11:03;9.50;99.90
52919;DHT22;38793;52.690;6.812;2023-04-24T01:13:31;9.50;99.90
52919;DHT22;38793;52.690;6.812;2023-04-24T01:15:57;9.50;99.90
52919;DHT22;38793;52.690;6.812;2023-04-24T01:18:23;9.50;99.90
52919;DHT22;38793;52.690;6.812;2023-04-24T01:20:51;9.40;99.90
52919;DHT22;38793;52.690;6.812;2023-04-24T01:23:17;9.40;99.90
52919;DHT22;38793;52.690;6.812;2023-04-24T01:25:43;9.40;99.90
52919;DHT22;38793;52.690;6.812;2023-04-24T01:28:09;9.40;99.90
52919;DHT22;38793;52.690;6.812;2023-04-24T01:30:35;9.40;99.90
52919;DHT22;38793;52.690;6.812;2023-04-24T01:33:01;9.40;99.90
52919;DHT22;38793;52.690;6.812;2023-04-24T01:35:26;9.40;99.90
52919;DHT22;38793;52.690;6.812;2023-04-24T01:37:52;9.40;99.90
52919;DHT22;38793;52.690;6.812;2023-04-24T01:40:18;9.40;99.90
52919;DHT22;38793;52.690;6.812;2023-04-24T01:42:43;9.40;99.90
52919;DHT22;38793;52.690;6.812;2023-04-24T01:45:11;9.40;99.90
52919;DHT22;38793;52.690;6.812;2023-04-24T01:47:38;9.40;99.90
52919;DHT22;38793;52.690;6.812;2023-04-24T01:50:05;9.40;99.90
52919;DHT22;38793;52.690;6.812;2023-04-24T01:52:31;9.40;99.90
52919;DHT22;38793;52.690;6.812;2023-04-24T01:55:04;9.40;99.90
52919;DHT22;38793;52.690;6.812;2023-04-24T01:57:31;9.40;99.90
52919;DHT22;38793;52.690;6.812;2023-04-24T01:59:57;9.50;99.90
52919;DHT22;38793;52.690;6.812;2023-04-24T02:02:22;9.50;99.90
52919;DHT22;38793;52.690;6.812;2023-04-24T02:04:50;9.50;99.90
52919;DHT22;38793;52.690;6.812;2023-04-24T02:07:15;9.50;99.90
52919;DHT22;38793;52.690;6.812;2023-04-24T02:09:41;9.60;99.90
52919;DHT22;38793;52.690;6.812;2023-04-24T02:12:07;9.60;99.90
52919;DHT22;38793;52.690;6.812;2023-04-24T02:14:32;9.60;99.90
52919;DHT22;38793;52.690;6.812;2023-04-24T02:16:58;9.60;99.90
52919;DHT22;38793;52.690;6.812;2023-04-24T02:19:24;9.60;99.90
52919;DHT22;38793;52.690;6.812;2023-04-24T02:21:49;9.70;99.90
52919;DHT22;38793;52.690;6.812;2023-04-24T02:24:15;9.70;99.90
52919;DHT22;38793;52.690;6.812;2023-04-24T02:26:41;9.70;99.90
52919;DHT22;38793;52.690;6.812;2023-04-24T02:29:07;9.70;99.90
52919;DHT22;38793;52.690;6.812;2023-04-24T02:31:32;9.70;99.90
52919;DHT22;38793;52.690;6.812;2023-04-24T02:33:59;9.70;99.90
52919;DHT22;38793;52.690;6.812;2023-04-24T02:36:24;9.70;99.90
52919;DHT22;38793;52.690;6.812;2023-04-24T02:38:50;9.60;99.90
52919;DHT22;38793;52.690;6.812;2023-04-24T02:41:16;9.70;99.90
52919;DHT22;38793;52.690;6.812;2023-04-24T02:43:41;9.60;99.90
52919;DHT22;38793;52.690;6.812;2023-04-24T02:46:07;9.70;99.90
52919;DHT22;38793;52.690;6.812;2023-04-24T02:48:32;9.60;99.90
52919;DHT22;38793;52.690;6.812;2023-04-24T02:50:58;9.60;99.90
52919;DHT22;38793;52.690;6.812;2023-04-24T02:53:24;9.60;99.90
52919;DHT22;38793;52.690;6.812;2023-04-24T02:55:49;9.60;99.90
52919;DHT22;38793;52.690;6.812;2023-04-24T02:58:15;9.60;99.90
52919;DHT22;38793;52.690;6.812;2023-04-24T03:00:41;9.60;99.90
52919;DHT22;38793;52.690;6.812;2023-04-24T03:03:06;9.60;99.90
52919;DHT22;38793;52.690;6.812;2023-04-24T03:05:32;9.60;99.90
52919;DHT22;38793;52.690;6.812;2023-04-24T03:07:58;9.60;99.90
52919;DHT22;38793;52.690;6.812;2023-04-24T03:10:23;9.60;99.90
52919;DHT22;38793;52.690;6.812;2023-04-24T03:12:49;9.60;99.90
52919;DHT22;38793;52.690;6.812;2023-04-24T03:15:16;9.60;99.90
52919;DHT22;38793;52.690;6.812;2023-04-24T03:17:42;9.60;99.90
52919;DHT22;38793;52.690;6.812;2023-04-24T03:20:08;9.60;99.90
52919;DHT22;38793;52.690;6.812;2023-04-24T03:22:34;9.60;99.90
52919;DHT22;38793;52.690;6.812;2023-04-24T03:25:00;9.60;99.90
52919;DHT22;38793;52.690;6.812;2023-04-24T03:27:26;9.50;99.90
52919;DHT22;38793;52.690;6.812;2023-04-24T03:29:51;9.50;99.90
52919;DHT22;38793;52.690;6.812;2023-04-24T03:32:21;9.50;99.90
52919;DHT22;38793;52.690;6.812;2023-04-24T03:34:48;9.50;99.90
52919;DHT22;38793;52.690;6.812;2023-04-24T03:37:13;9.50;99.90
52919;DHT22;38793;52.690;6.812;2023-04-24T03:39:39;9.40;99.90
52919;DHT22;38793;52.690;6.812;2023-04-24T03:42:05;9.40;99.90
52919;DHT22;38793;52.690;6.812;2023-04-24T03:44:30;9.40;99.90
52919;DHT22;38793;52.690;6.812;2023-04-24T03:46:58;9.40;99.90
52919;DHT22;38793;52.690;6.812;2023-04-24T03:49:23;9.40;99.90
52919;DHT22;38793;52.690;6.812;2023-04-24T03:51:49;9.30;99.90
52919;DHT22;38793;52.690;6.812;2023-04-24T03:54:14;9.40;99.90
52919;DHT22;38793;52.690;6.812;2023-04-24T03:56:40;9.40;99.90
52919;DHT22;38793;52.690;6.812;2023-04-24T03:59:05;9.40;99.90
52919;DHT22;38793;52.690;6.812;2023-04-24T04:01:31;9.40;99.90
52919;DHT22;38793;52.690;6.812;2023-04-24T04:03:57;9.30;99.90
52919;DHT22;38793;52.690;6.812;2023-04-24T04:06:22;9.30;99.90
52919;DHT22;38793;52.690;6.812;2023-04-24T04:08:48;9.30;99.90
52919;DHT22;38793;52.690;6.812;2023-04-24T04:11:13;9.30;99.90
52919;DHT22;38793;52.690;6.812;2023-04-24T04:13:39;9.30;99.90
52919;DHT22;38793;52.690;6.812;2023-04-24T04:16:05;9.30;99.90
52919;DHT22;38793;52.690;6.812;2023-04-24T04:18:30;9.30;99.90
52919;DHT22;38793;52.690;6.812;2023-04-24T04:20:56;9.30;99.90
52919;DHT22;38793;52.690;6.812;2023-04-24T04:23:22;9.20;99.90
52919;DHT22;38793;52.690;6.812;2023-04-24T04:25:48;9.20;99.90
52919;DHT22;38793;52.690;6.812;2023-04-24T04:28:15;9.20;99.90
52919;DHT22;38793;52.690;6.812;2023-04-24T04:30:40;9.20;99.90
52919;DHT22;38793;52.690;6.812;2023-04-24T04:33:06;9.10;99.90
52919;DHT22;38793;52.690;6.812;2023-04-24T04:35:33;9.20;99.90
52919;DHT22;38793;52.690;6.812;2023-04-24T04:37:59;9.20;99.90
52919;DHT22;38793;52.690;6.812;2023-04-24T04:40:24;9.20;99.90
52919;DHT22;38793;52.690;6.812;2023-04-24T04:42:50;9.20;99.90
52919;DHT22;38793;52.690;6.812;2023-04-24T04:45:18;9.20;99.90
52919;DHT22;38793;52.690;6.812;2023-04-24T04:47:44;9.20;99.90
52919;DHT22;38793;52.690;6.812;2023-04-24T04:50:10;9.20;99.90
52919;DHT22;38793;52.690;6.812;2023-04-24T04:52:35;9.20;99.90
52919;DHT22;38793;52.690;6.812;2023-04-24T04:55:02;9.30;99.90
52919;DHT22;38793;52.690;6.812;2023-04-24T04:57:27;9.20;99.90
52919;DHT22;38793;52.690;6.812;2023-04-24T04:59:53;9.30;99.90
52919;DHT22;38793;52.690;6.812;2023-04-24T05:02:19;9.30;99.90
52919;DHT22;38793;52.690;6.812;2023-04-24T05:04:44;9.30;99.90
52919;DHT22;38793;52.690;6.812;2023-04-24T05:07:10;9.30;99.90
52919;DHT22;38793;52.690;6.812;2023-04-24T05:09:36;9.40;99.90
52919;DHT22;38793;52.690;6.812;2023-04-24T05:12:03;9.40;99.90
52919;DHT22;38793;52.690;6.812;2023-04-24T05:14:28;9.40;99.90
52919;DHT22;38793;52.690;6.812;2023-04-24T05:16:54;9.40;99.90
52919;DHT22;38793;52.690;6.812;2023-04-24T05:19:19;9.40;99.90
52919;DHT22;38793;52.690;6.812;2023-04-24T05:21:45;9.40;99.90
52919;DHT22;38793;52.690;6.812;2023-04-24T05:24:11;9.40;99.90
52919;DHT22;38793;52.690;6.812;2023-04-24T05:26:37;9.40;99.90
52919;DHT22;38793;52.690;6.812;2023-04-24T05:29:03;9.40;99.90
52919;DHT22;38793;52.690;6.812;2023-04-24T05:31:29;9.40;99.90
52919;DHT22;38793;52.690;6.812;2023-04-24T05:33:55;9.40;99.90
52919;DHT22;38793;52.690;6.812;2023-04-24T05:36:20;9.30;99.90
52919;DHT22;38793;52.690;6.812;2023-04-24T05:38:46;9.30;99.90
52919;DHT22;38793;52.690;6.812;2023-04-24T05:41:11;9.30;99.90
52919;DHT22;38793;52.690;6.812;2023-04-24T05:43:37;9.40;99.90
52919;DHT22;38793;52.690;6.812;2023-04-24T05:46:02;9.30;99.90
52919;DHT22;38793;52.690;6.812;2023-04-24T05:48:28;9.40;99.90
52919;DHT22;38793;52.690;6.812;2023-04-24T05:50:54;9.30;99.90
52919;DHT22;38793;52.690;6.812;2023-04-24T05:53:19;9.30;99.90
52919;DHT22;38793;52.690;6.812;2023-04-24T05:55:45;9.30;99.90
52919;DHT22;38793;52.690;6.812;2023-04-24T05:58:11;9.30;99.90
52919;DHT22;38793;52.690;6.812;2023-04-24T06:00:37;9.30;99.90
52919;DHT22;38793;52.690;6.812;2023-04-24T06:03:05;9.20;99.90
52919;DHT22;38793;52.690;6.812;2023-04-24T06:05:31;9.20;99.90
52919;DHT22;38793;52.690;6.812;2023-04-24T06:07:56;9.20;99.90
52919;DHT22;38793;52.690;6.812;2023-04-24T06:10:22;9.20;99.90
52919;DHT22;38793;52.690;6.812;2023-04-24T06:12:47;9.10;99.90
52919;DHT22;38793;52.690;6.812;2023-04-24T06:15:13;9.10;99.90
52919;DHT22;38793;52.690;6.812;2023-04-24T06:17:38;9.10;99.90
52919;DHT22;38793;52.690;6.812;2023-04-24T06:20:05;9.10;99.90
52919;DHT22;38793;52.690;6.812;2023-04-24T06:22:32;9.10;99.90
52919;DHT22;38793;52.690;6.812;2023-04-24T06:24:57;9.10;99.90
52919;DHT22;38793;52.690;6.812;2023-04-24T06:27:23;9.10;99.90
52919;DHT22;38793;52.690;6.812;2023-04-24T06:29:49;9.10;99.90
52919;DHT22;38793;52.690;6.812;2023-04-24T06:32:22;9.00;99.90
52919;DHT22;38793;52.690;6.812;2023-04-24T06:34:48;9.00;99.90
52919;DHT22;38793;52.690;6.812;2023-04-24T06:37:14;9.00;99.90
52919;DHT22;38793;52.690;6.812;2023-04-24T06:39:39;9.00;99.90
52919;DHT22;38793;52.690;6.812;2023-04-24T06:42:05;9.00;99.90
52919;DHT22;38793;52.690;6.812;2023-04-24T06:44:30;9.00;99.90
52919;DHT22;38793;52.690;6.812;2023-04-24T06:46:56;9.00;99.90
52919;DHT22;38793;52.690;6.812;2023-04-24T06:49:22;9.00;99.90
52919;DHT22;38793;52.690;6.812;2023-04-24T06:51:47;9.00;99.90
52919;DHT22;38793;52.690;6.812;2023-04-24T06:54:13;8.90;99.90
52919;DHT22;38793;52.690;6.812;2023-04-24T06:56:38;9.00;99.90
52919;DHT22;38793;52.690;6.812;2023-04-24T06:59:04;9.00;99.90
52919;DHT22;38793;52.690;6.812;2023-04-24T07:01:30;9.00;99.90
52919;DHT22;38793;52.690;6.812;2023-04-24T07:03:55;9.00;99.90
52919;DHT22;38793;52.690;6.812;2023-04-24T07:06:21;9.00;99.90
52919;DHT22;38793;52.690;6.812;2023-04-24T07:08:48;9.00;99.90
52919;DHT22;38793;52.690;6.812;2023-04-24T07:11:14;8.90;99.90
52919;DHT22;38793;52.690;6.812;2023-04-24T07:13:39;8.90;99.90
52919;DHT22;38793;52.690;6.812;2023-04-24T07:16:07;9.00;99.90
52919;DHT22;38793;52.690;6.812;2023-04-24T07:18:33;8.90;99.90
52919;DHT22;38793;52.690;6.812;2023-04-24T07:20:59;8.90;99.90
52919;DHT22;38793;52.690;6.812;2023-04-24T07:23:24;8.90;99.90
52919;DHT22;38793;52.690;6.812;2023-04-24T07:25:50;8.90;99.90
52919;DHT22;38793;52.690;6.812;2023-04-24T07:28:16;8.90;99.90
52919;DHT22;38793;52.690;6.812;2023-04-24T07:30:43;8.90;99.90
52919;DHT22;38793;52.690;6.812;2023-04-24T07:33:08;8.90;99.90
52919;DHT22;38793;52.690;6.812;2023-04-24T07:35:36;8.90;99.90
52919;DHT22;38793;52.690;6.812;2023-04-24T07:38:02;9.00;99.90
52919;DHT22;38793;52.690;6.812;2023-04-24T07:40:27;9.00;99.90
52919;DHT22;38793;52.690;6.812;2023-04-24T07:42:53;9.00;99.90
52919;DHT22;38793;52.690;6.812;2023-04-24T07:45:18;9.10;99.90
52919;DHT22;38793;52.690;6.812;2023-04-24T07:47:44;9.10;99.90
52919;DHT22;38793;52.690;6.812;2023-04-24T07:50:11;9.20;99.90
52919;DHT22;38793;52.690;6.812;2023-04-24T07:52:38;9.10;99.90
52919;DHT22;38793;52.690;6.812;2023-04-24T07:55:04;9.20;99.90
52919;DHT22;38793;52.690;6.812;2023-04-24T07:57:30;9.20;99.90
52919;DHT22;38793;52.690;6.812;2023-04-24T07:59:55;9.20;99.90
52919;DHT22;38793;52.690;6.812;2023-04-24T08:02:21;9.30;99.90
52919;DHT22;38793;52.690;6.812;2023-04-24T08:04:52;9.30;99.90
52919;DHT22;38793;52.690;6.812;2023-04-24T08:07:18;9.30;99.90
52919;DHT22;38793;52.690;6.812;2023-04-24T08:09:44;9.40;99.90
52919;DHT22;38793;52.690;6.812;2023-04-24T08:12:10;9.40;99.90
52919;DHT22;38793;52.690;6.812;2023-04-24T08:14:35;9.40;99.90
52919;DHT22;38793;52.690;6.812;2023-04-24T08:17:01;9.50;99.90
52919;DHT22;38793;52.690;6.812;2023-04-24T08:19:27;9.50;99.90
52919;DHT22;38793;52.690;6.812;2023-04-24T08:21:53;9.50;99.90
52919;DHT22;38793;52.690;6.812;2023-04-24T08:24:18;9.50;99.90
52919;DHT22;38793;52.690;6.812;2023-04-24T08:26:44;9.50;99.90
52919;DHT22;38793;52.690;6.812;2023-04-24T08:29:10;9.50;99.90
52919;DHT22;38793;52.690;6.812;2023-04-24T08:31:36;9.50;99.90
52919;DHT22;38793;52.690;6.812;2023-04-24T08:34:01;9.60;99.90
52919;DHT22;38793;52.690;6.812;2023-04-24T08:36:27;9.60;99.90
52919;DHT22;38793;52.690;6.812;2023-04-24T08:38:53;9.60;99.90
52919;DHT22;38793;52.690;6.812;2023-04-24T08:41:19;9.60;99.90
52919;DHT22;38793;52.690;6.812;2023-04-24T08:43:48;9.70;99.90
52919;DHT22;38793;52.690;6.812;2023-04-24T08:46:15;9.70;99.90
52919;DHT22;38793;52.690;6.812;2023-04-24T08:48:42;9.80;99.90
52919;DHT22;38793;52.690;6.812;2023-04-24T08:51:08;9.80;99.90
52919;DHT22;38793;52.690;6.812;2023-04-24T08:53:35;9.90;99.90
52919;DHT22;38793;52.690;6.812;2023-04-24T08:56:01;9.90;99.90
52919;DHT22;38793;52.690;6.812;2023-04-24T08:58:27;9.90;99.90
52919;DHT22;38793;52.690;6.812;2023-04-24T09:00:57;10.00;99.90
52919;DHT22;38793;52.690;6.812;2023-04-24T09:03:23;10.00;99.90
52919;DHT22;38793;52.690;6.812;2023-04-24T09:05:50;10.00;99.90
52919;DHT22;38793;52.690;6.812;2023-04-24T09:08:19;10.00;99.90
52919;DHT22;38793;52.690;6.812;2023-04-24T09:10:47;10.00;99.90
52919;DHT22;38793;52.690;6.812;2023-04-24T09:13:13;10.00;99.90
52919;DHT22;38793;52.690;6.812;2023-04-24T09:15:40;10.00;99.90
52919;DHT22;38793;52.690;6.812;2023-04-24T09:18:06;10.00;99.90
52919;DHT22;38793;52.690;6.812;2023-04-24T09:20:32;10.00;99.90
52919;DHT22;38793;52.690;6.812;2023-04-24T09:22:58;10.00;99.90
52919;DHT22;38793;52.690;6.812;2023-04-24T09:25:34;10.00;99.90
52919;DHT22;38793;52.690;6.812;2023-04-24T09:28:04;10.00;99.90
52919;DHT22;38793;52.690;6.812;2023-04-24T09:30:32;10.00;99.90
52919;DHT22;38793;52.690;6.812;2023-04-24T09:33:13;10.00;99.90
52919;DHT22;38793;52.690;6.812;2023-04-24T09:35:50;9.90;99.90
52919;DHT22;38793;52.690;6.812;2023-04-24T09:38:16;9.90;99.90
52919;DHT22;38793;52.690;6.812;2023-04-24T09:40:42;9.80;99.90
52919;DHT22;38793;52.690;6.812;2023-04-24T09:43:10;9.80;99.90
52919;DHT22;38793;52.690;6.812;2023-04-24T09:45:38;9.80;99.90
52919;DHT22;38793;52.690;6.812;2023-04-24T09:48:05;9.90;99.90
52919;DHT22;38793;52.690;6.812;2023-04-24T09:50:32;9.80;99.90
52919;DHT22;38793;52.690;6.812;2023-04-24T09:53:02;9.80;99.90
52919;DHT22;38793;52.690;6.812;2023-04-24T09:55:29;9.80;99.90
52919;DHT22;38793;52.690;6.812;2023-04-24T09:58:00;9.80;99.90
52919;DHT22;38793;52.690;6.812;2023-04-24T10:00:31;9.80;99.90
52919;DHT22;38793;52.690;6.812;2023-04-24T10:03:01;9.80;99.90
52919;DHT22;38793;52.690;6.812;2023-04-24T10:05:35;9.80;99.90
52919;DHT22;38793;52.690;6.812;2023-04-24T10:08:06;9.80;99.90
52919;DHT22;38793;52.690;6.812;2023-04-24T10:10:39;9.70;99.90
52919;DHT22;38793;52.690;6.812;2023-04-24T10:13:07;9.70;99.90
52919;DHT22;38793;52.690;6.812;2023-04-24T10:15:33;9.70;99.90
52919;DHT22;38793;52.690;6.812;2023-04-24T10:17:59;9.60;99.90
52919;DHT22;38793;52.690;6.812;2023-04-24T10:20:27;9.50;99.90
52919;DHT22;38793;52.690;6.812;2023-04-24T10:22:55;9.50;99.90
52919;DHT22;38793;52.690;6.812;2023-04-24T10:25:26;9.40;99.90
52919;DHT22;38793;52.690;6.812;2023-04-24T10:27:53;9.40;99.90
52919;DHT22;38793;52.690;6.812;2023-04-24T10:30:22;9.50;99.90
52919;DHT22;38793;52.690;6.812;2023-04-24T10:32:48;9.50;99.90
52919;DHT22;38793;52.690;6.812;2023-04-24T10:35:15;9.50;99.90
52919;DHT22;38793;52.690;6.812;2023-04-24T10:37:54;9.60;99.90
52919;DHT22;38793;52.690;6.812;2023-04-24T10:40:34;9.60;99.90
52919;DHT22;38793;52.690;6.812;2023-04-24T10:43:07;9.60;99.90
52919;DHT22;38793;52.690;6.812;2023-04-24T10:45:37;9.60;99.90
52919;DHT22;38793;52.690;6.812;2023-04-24T10:48:09;9.60;99.90
52919;DHT22;38793;52.690;6.812;2023-04-24T10:50:43;9.60;99.90
52919;DHT22;38793;52.690;6.812;2023-04-24T10:53:20;9.60;99.90
52919;DHT22;38793;52.690;6.812;2023-04-24T10:55:47;9.60;99.90
52919;DHT22;38793;52.690;6.812;2023-04-24T10:58:13;9.30;99.90
52919;DHT22;38793;52.690;6.812;2023-04-24T11:00:40;9.30;99.90
52919;DHT22;38793;52.690;6.812;2023-04-24T11:03:29;9.20;99.90
52919;DHT22;38793;52.690;6.812;2023-04-24T11:06:04;9.10;99.90
52919;DHT22;38793;52.690;6.812;2023-04-24T11:08:40;9.10;99.90
52919;DHT22;38793;52.690;6.812;2023-04-24T11:11:13;9.10;99.90
52919;DHT22;38793;52.690;6.812;2023-04-24T11:21:41;9.10;99.90
52919;DHT22;38793;52.690;6.812;2023-04-24T11:27:12;9.10;99.90
52919;DHT22;38793;52.690;6.812;2023-04-24T11:30:01;9.10;99.90
52919;DHT22;38793;52.690;6.812;2023-04-24T11:37:40;9.30;99.90
52919;DHT22;38793;52.690;6.812;2023-04-24T11:40:11;9.40;99.90
52919;DHT22;38793;52.690;6.812;2023-04-24T11:42:39;9.40;99.90
52919;DHT22;38793;52.690;6.812;2023-04-24T11:47:41;9.60;99.90
52919;DHT22;38793;52.690;6.812;2023-04-24T11:50:12;9.60;99.90
52919;DHT22;38793;52.690;6.812;2023-04-24T11:52:41;9.60;99.90
52919;DHT22;38793;52.690;6.812;2023-04-24T11:55:22;9.70;99.90
52919;DHT22;38793;52.690;6.812;2023-04-24T11:57:54;9.70;99.90
52919;DHT22;38793;52.690;6.812;2023-04-24T12:00:40;9.70;99.90
52919;DHT22;38793;52.690;6.812;2023-04-24T12:03:11;9.70;99.90
52919;DHT22;38793;52.690;6.812;2023-04-24T12:05:38;9.70;99.90
52919;DHT22;38793;52.690;6.812;2023-04-24T12:08:04;9.70;99.90
52919;DHT22;38793;52.690;6.812;2023-04-24T12:10:31;9.70;99.90
52919;DHT22;38793;52.690;6.812;2023-04-24T12:12:58;9.70;99.90
52919;DHT22;38793;52.690;6.812;2023-04-24T12:15:24;9.70;99.90
52919;DHT22;38793;52.690;6.812;2023-04-24T12:17:54;9.60;99.90
52919;DHT22;38793;52.690;6.812;2023-04-24T12:20:31;9.60;99.90
52919;DHT22;38793;52.690;6.812;2023-04-24T12:22:59;9.60;99.90
52919;DHT22;38793;52.690;6.812;2023-04-24T12:25:34;9.60;99.90
52919;DHT22;38793;52.690;6.812;2023-04-24T12:30:37;9.50;99.90
52919;DHT22;38793;52.690;6.812;2023-04-24T12:33:03;9.50;99.90
52919;DHT22;38793;52.690;6.812;2023-04-24T12:35:31;9.40;99.90
52919;DHT22;38793;52.690;6.812;2023-04-24T12:38:21;9.40;99.90
52919;DHT22;38793;52.690;6.812;2023-04-24T12:40:47;9.50;99.90
52919;DHT22;38793;52.690;6.812;2023-04-24T12:43:19;9.50;99.90
52919;DHT22;38793;52.690;6.812;2023-04-24T12:45:47;9.50;99.90
52919;DHT22;38793;52.690;6.812;2023-04-24T12:48:13;9.50;99.90
52919;DHT22;38793;52.690;6.812;2023-04-24T12:50:42;9.40;99.90
52919;DHT22;38793;52.690;6.812;2023-04-24T12:53:08;9.50;99.90
52919;DHT22;38793;52.690;6.812;2023-04-24T12:55:34;9.40;99.90
52919;DHT22;38793;52.690;6.812;2023-04-24T12:58:00;9.40;99.90
52919;DHT22;38793;52.690;6.812;2023-04-24T13:00:27;9.50;99.90
52919;DHT22;38793;52.690;6.812;2023-04-24T13:02:52;9.50;99.90
52919;DHT22;38793;52.690;6.812;2023-04-24T13:05:18;9.50;99.90
52919;DHT22;38793;52.690;6.812;2023-04-24T13:07:44;9.40;99.90
52919;DHT22;38793;52.690;6.812;2023-04-24T13:10:10;9.40;99.90
52919;DHT22;38793;52.690;6.812;2023-04-24T13:12:35;9.30;99.90
52919;DHT22;38793;52.690;6.812;2023-04-24T13:15:01;9.30;99.90
52919;DHT22;38793;52.690;6.812;2023-04-24T13:17:27;9.30;99.90
52919;DHT22;38793;52.690;6.812;2023-04-24T13:19:54;9.20;99.90
52919;DHT22;38793;52.690;6.812;2023-04-24T13:22:20;9.20;99.90
52919;DHT22;38793;52.690;6.812;2023-04-24T13:24:46;9.20;99.90
52919;DHT22;38793;52.690;6.812;2023-04-24T13:27:14;9.20;99.90
52919;DHT22;38793;52.690;6.812;2023-04-24T13:29:40;9.10;99.90
52919;DHT22;38793;52.690;6.812;2023-04-24T13:32:06;9.10;99.90
52919;DHT22;38793;52.690;6.812;2023-04-24T13:34:32;9.10;99.90
52919;DHT22;38793;52.690;6.812;2023-04-24T13:36:58;9.10;99.90
52919;DHT22;38793;52.690;6.812;2023-04-24T13:39:24;9.10;99.90
52919;DHT22;38793;52.690;6.812;2023-04-24T13:41:50;9.10;99.90
52919;DHT22;38793;52.690;6.812;2023-04-24T13:44:17;9.10;99.90
52919;DHT22;38793;52.690;6.812;2023-04-24T13:46:44;9.00;99.90
52919;DHT22;38793;52.690;6.812;2023-04-24T13:49:11;9.00;99.90
52919;DHT22;38793;52.690;6.812;2023-04-24T13:51:37;8.90;99.90
52919;DHT22;38793;52.690;6.812;2023-04-24T13:54:03;8.90;99.90
52919;DHT22;38793;52.690;6.812;2023-04-24T13:56:28;8.90;99.90
52919;DHT22;38793;52.690;6.812;2023-04-24T13:58:54;8.90;99.90
52919;DHT22;38793;52.690;6.812;2023-04-24T14:01:20;8.90;99.90
52919;DHT22;38793;52.690;6.812;2023-04-24T14:03:49;8.90;99.90
52919;DHT22;38793;52.690;6.812;2023-04-24T14:06:15;8.90;99.90
52919;DHT22;38793;52.690;6.812;2023-04-24T14:08:41;8.90;99.90
52919;DHT22;38793;52.690;6.812;2023-04-24T14:11:06;9.00;99.90
52919;DHT22;38793;52.690;6.812;2023-04-24T14:13:32;9.00;99.90
52919;DHT22;38793;52.690;6.812;2023-04-24T14:15:58;9.00;99.90
52919;DHT22;38793;52.690;6.812;2023-04-24T14:18:23;9.10;99.90
52919;DHT22;38793;52.690;6.812;2023-04-24T14:20:49;9.10;99.90
52919;DHT22;38793;52.690;6.812;2023-04-24T14:23:15;9.10;99.90
52919;DHT22;38793;52.690;6.812;2023-04-24T14:25:41;9.10;99.90
52919;DHT22;38793;52.690;6.812;2023-04-24T14:28:06;9.00;99.90
52919;DHT22;38793;52.690;6.812;2023-04-24T14:30:32;8.90;99.90
52919;DHT22;38793;52.690;6.812;2023-04-24T14:32:58;8.80;99.90
52919;DHT22;38793;52.690;6.812;2023-04-24T14:35:23;8.80;99.90
52919;DHT22;38793;52.690;6.812;2023-04-24T14:37:49;8.70;99.90
52919;DHT22;38793;52.690;6.812;2023-04-24T14:40:15;8.70;99.90
52919;DHT22;38793;52.690;6.812;2023-04-24T14:42:40;8.70;99.90
52919;DHT22;38793;52.690;6.812;2023-04-24T14:45:06;8.70;99.90
52919;DHT22;38793;52.690;6.812;2023-04-24T14:47:33;8.70;99.90
52919;DHT22;38793;52.690;6.812;2023-04-24T14:49:59;8.70;99.90
52919;DHT22;38793;52.690;6.812;2023-04-24T14:52:24;8.70;99.90
52919;DHT22;38793;52.690;6.812;2023-04-24T14:54:50;8.70;99.90
52919;DHT22;38793;52.690;6.812;2023-04-24T14:57:16;8.60;99.90
52919;DHT22;38793;52.690;6.812;2023-04-24T14:59:41;8.60;99.90
52919;DHT22;38793;52.690;6.812;2023-04-24T15:02:07;8.60;99.90
52919;DHT22;38793;52.690;6.812;2023-04-24T15:04:32;8.70;99.90
52919;DHT22;38793;52.690;6.812;2023-04-24T15:06:58;8.70;99.90
52919;DHT22;38793;52.690;6.812;2023-04-24T15:09:24;8.80;99.90
52919;DHT22;38793;52.690;6.812;2023-04-24T15:11:51;8.80;99.90
52919;DHT22;38793;52.690;6.812;2023-04-24T15:14:18;8.90;99.90
52919;DHT22;38793;52.690;6.812;2023-04-24T15:16:44;8.90;99.90
52919;DHT22;38793;52.690;6.812;2023-04-24T15:19:09;9.00;99.90
52919;DHT22;38793;52.690;6.812;2023-04-24T15:21:36;9.00;99.90
52919;DHT22;38793;52.690;6.812;2023-04-24T15:24:02;9.00;99.90
52919;DHT22;38793;52.690;6.812;2023-04-24T15:26:28;9.00;99.90
52919;DHT22;38793;52.690;6.812;2023-04-24T15:28:54;8.90;99.90
52919;DHT22;38793;52.690;6.812;2023-04-24T15:31:19;8.90;99.90
52919;DHT22;38793;52.690;6.812;2023-04-24T15:33:45;8.90;99.90
52919;DHT22;38793;52.690;6.812;2023-04-24T15:36:11;8.90;99.90
52919;DHT22;38793;52.690;6.812;2023-04-24T15:38:37;8.90;99.90
52919;DHT22;38793;52.690;6.812;2023-04-24T15:41:03;8.90;99.90
52919;DHT22;38793;52.690;6.812;2023-04-24T15:43:28;8.90;99.90
52919;DHT22;38793;52.690;6.812;2023-04-24T15:45:57;9.00;99.90
52919;DHT22;38793;52.690;6.812;2023-04-24T15:48:22;9.00;99.90
52919;DHT22;38793;52.690;6.812;2023-04-24T15:50:48;9.00;99.90
52919;DHT22;38793;52.690;6.812;2023-04-24T15:53:14;8.90;99.90
52919;DHT22;38793;52.690;6.812;2023-04-24T15:55:47;8.80;99.90
52919;DHT22;38793;52.690;6.812;2023-04-24T15:58:12;8.90;99.90
52919;DHT22;38793;52.690;6.812;2023-04-24T16:00:38;8.90;99.90
52919;DHT22;38793;52.690;6.812;2023-04-24T16:03:03;8.90;99.90